sensor_id;sensor_type;location;lat;lon;timestamp;pressure;altitude;pressure_sealevel;temperature;humidity
49342;BME280;35210;41.606;-87.602;2023-08-06T00:00:29;99179.78;;;22.93;100.00
49342;BME280;35210;41.606;-87.602;2023-08-06T00:02:57;99178.13;;;22.92;100.00
49342;BME280;35210;41.606;-87.602;2023-08-06T00:05:25;99171.09;;;22.91;100.00
49342;BME280;35210;41.606;-87.602;2023-08-06T00:07:55;99176.88;;;22.88;100.00
49342;BME280;35210;41.606;-87.602;2023-08-06T00:10:24;99175.84;;;22.89;100.00
49342;BME280;35210;41.606;-87.602;2023-08-06T00:12:52;99177.91;;;22.87;100.00
49342;BME280;35210;41.606;-87.602;2023-08-06T00:15:20;99191.38;;;22.87;100.00
49342;BME280;35210;41.606;-87.602;2023-08-06T00:17:48;99191.97;;;22.83;100.00
49342;BME280;35210;41.606;-87.602;2023-08-06T00:20:16;99185.75;;;22.82;100.00
49342;BME280;35210;41.606;-87.602;2023-08-06T00:22:44;99183.69;;;22.84;100.00
49342;BME280;35210;41.606;-87.602;2023-08-06T00:25:14;99188.06;;;22.85;100.00
49342;BME280;35210;41.606;-87.602;2023-08-06T00:27:43;99183.09;;;22.89;100.00
49342;BME280;35210;41.606;-87.602;2023-08-06T00:30:11;99182.25;;;22.88;100.00
49342;BME280;35210;41.606;-87.602;2023-08-06T00:32:39;99192.00;;;22.89;100.00
49342;BME280;35210;41.606;-87.602;2023-08-06T00:35:09;99192.63;;;22.91;100.00
49342;BME280;35210;41.606;-87.602;2023-08-06T00:37:37;99199.25;;;22.89;100.00
49342;BME280;35210;41.606;-87.602;2023-08-06T00:40:07;99196.34;;;22.90;100.00
49342;BME280;35210;41.606;-87.602;2023-08-06T00:42:37;99204.66;;;22.96;100.00
49342;BME280;35210;41.606;-87.602;2023-08-06T00:45:05;99204.22;;;22.92;100.00
49342;BME280;35210;41.606;-87.602;2023-08-06T00:47:34;99199.78;;;22.78;100.00
49342;BME280;35210;41.606;-87.602;2023-08-06T00:50:02;99199.63;;;22.79;100.00
49342;BME280;35210;41.606;-87.602;2023-08-06T00:52:33;99187.16;;;22.78;100.00
49342;BME280;35210;41.606;-87.602;2023-08-06T00:55:01;99187.97;;;22.72;100.00
49342;BME280;35210;41.606;-87.602;2023-08-06T00:57:30;99182.38;;;22.67;100.00
49342;BME280;35210;41.606;-87.602;2023-08-06T00:59:59;99185.06;;;22.67;100.00
49342;BME280;35210;41.606;-87.602;2023-08-06T01:02:28;99194.97;;;22.60;100.00
49342;BME280;35210;41.606;-87.602;2023-08-06T01:04:56;99201.38;;;22.59;100.00
49342;BME280;35210;41.606;-87.602;2023-08-06T01:07:47;99201.59;;;22.64;100.00
49342;BME280;35210;41.606;-87.602;2023-08-06T01:10:31;99199.94;;;22.63;100.00
49342;BME280;35210;41.606;-87.602;2023-08-06T01:13:10;99193.31;;;22.59;100.00
49342;BME280;35210;41.606;-87.602;2023-08-06T01:15:45;99202.19;;;22.53;100.00
49342;BME280;35210;41.606;-87.602;2023-08-06T01:18:14;99195.75;;;22.47;100.00
49342;BME280;35210;41.606;-87.602;2023-08-06T01:20:45;99203.16;;;22.39;100.00
49342;BME280;35210;41.606;-87.602;2023-08-06T01:23:14;99196.50;;;22.35;100.00
49342;BME280;35210;41.606;-87.602;2023-08-06T01:25:46;99192.59;;;22.37;100.00
49342;BME280;35210;41.606;-87.602;2023-08-06T01:28:22;99187.81;;;22.33;100.00
49342;BME280;35210;41.606;-87.602;2023-08-06T01:30:53;99186.13;;;22.25;100.00
49342;BME280;35210;41.606;-87.602;2023-08-06T01:33:23;99182.00;;;22.22;100.00
49342;BME280;35210;41.606;-87.602;2023-08-06T01:35:54;99177.00;;;22.19;100.00
49342;BME280;35210;41.606;-87.602;2023-08-06T01:38:24;99167.91;;;22.20;100.00
49342;BME280;35210;41.606;-87.602;2023-08-06T01:40:54;99170.41;;;22.22;100.00
49342;BME280;35210;41.606;-87.602;2023-08-06T01:43:22;99166.25;;;22.19;100.00
49342;BME280;35210;41.606;-87.602;2023-08-06T01:45:50;99165.22;;;22.20;100.00
49342;BME280;35210;41.606;-87.602;2023-08-06T01:48:18;99184.44;;;22.17;100.00
49342;BME280;35210;41.606;-87.602;2023-08-06T01:50:47;99186.50;;;22.15;100.00
49342;BME280;35210;41.606;-87.602;2023-08-06T01:53:17;99190.22;;;22.14;100.00
49342;BME280;35210;41.606;-87.602;2023-08-06T01:55:48;99193.53;;;22.16;100.00
49342;BME280;35210;41.606;-87.602;2023-08-06T01:58:16;99200.56;;;22.17;100.00
49342;BME280;35210;41.606;-87.602;2023-08-06T02:00:44;99209.69;;;22.16;100.00
49342;BME280;35210;41.606;-87.602;2023-08-06T02:03:13;99200.13;;;22.14;100.00
49342;BME280;35210;41.606;-87.602;2023-08-06T02:05:44;99214.81;;;22.11;100.00
49342;BME280;35210;41.606;-87.602;2023-08-06T02:08:12;99211.28;;;22.11;100.00
49342;BME280;35210;41.606;-87.602;2023-08-06T02:10:42;99217.09;;;22.14;100.00
49342;BME280;35210;41.606;-87.602;2023-08-06T02:13:10;99226.84;;;22.15;100.00
49342;BME280;35210;41.606;-87.602;2023-08-06T02:15:42;99227.88;;;22.14;100.00
49342;BME280;35210;41.606;-87.602;2023-08-06T02:18:11;99232.03;;;22.17;100.00
49342;BME280;35210;41.606;-87.602;2023-08-06T02:20:39;99231.81;;;22.18;100.00
49342;BME280;35210;41.606;-87.602;2023-08-06T02:23:07;99237.19;;;22.18;100.00
49342;BME280;35210;41.606;-87.602;2023-08-06T02:25:35;99246.09;;;22.19;100.00
49342;BME280;35210;41.606;-87.602;2023-08-06T02:28:06;99245.28;;;22.18;100.00
49342;BME280;35210;41.606;-87.602;2023-08-06T02:30:34;99248.78;;;22.19;100.00
49342;BME280;35210;41.606;-87.602;2023-08-06T02:33:04;99251.28;;;22.20;100.00
49342;BME280;35210;41.606;-87.602;2023-08-06T02:35:32;99250.25;;;22.21;100.00
49342;BME280;35210;41.606;-87.602;2023-08-06T02:38:01;99254.16;;;22.19;100.00
49342;BME280;35210;41.606;-87.602;2023-08-06T02:40:29;99245.66;;;22.15;100.00
49342;BME280;35210;41.606;-87.602;2023-08-06T02:42:57;99235.25;;;22.06;100.00
49342;BME280;35210;41.606;-87.602;2023-08-06T02:45:27;99228.22;;;22.05;100.00
49342;BME280;35210;41.606;-87.602;2023-08-06T02:47:55;99232.69;;;21.97;100.00
49342;BME280;35210;41.606;-87.602;2023-08-06T02:50:24;99225.63;;;21.96;100.00
49342;BME280;35210;41.606;-87.602;2023-08-06T02:52:52;99218.81;;;21.94;100.00
49342;BME280;35210;41.606;-87.602;2023-08-06T02:55:20;99220.22;;;21.90;100.00
49342;BME280;35210;41.606;-87.602;2023-08-06T02:57:49;99218.56;;;21.89;100.00
49342;BME280;35210;41.606;-87.602;2023-08-06T03:00:18;99217.09;;;21.86;100.00
49342;BME280;35210;41.606;-87.602;2023-08-06T03:02:47;99214.34;;;21.80;100.00
49342;BME280;35210;41.606;-87.602;2023-08-06T03:05:15;99216.00;;;21.81;100.00
49342;BME280;35210;41.606;-87.602;2023-08-06T03:07:44;99213.31;;;21.81;100.00
49342;BME280;35210;41.606;-87.602;2023-08-06T03:10:12;99217.44;;;21.77;100.00
49342;BME280;35210;41.606;-87.602;2023-08-06T03:12:40;99220.69;;;21.72;100.00
49342;BME280;35210;41.606;-87.602;2023-08-06T03:15:09;99216.75;;;21.68;100.00
49342;BME280;35210;41.606;-87.602;2023-08-06T03:17:37;99221.53;;;21.73;100.00
49342;BME280;35210;41.606;-87.602;2023-08-06T03:20:09;99219.88;;;21.72;100.00
49342;BME280;35210;41.606;-87.602;2023-08-06T03:22:37;99215.97;;;21.74;100.00
49342;BME280;35210;41.606;-87.602;2023-08-06T03:25:06;99213.47;;;21.73;100.00
49342;BME280;35210;41.606;-87.602;2023-08-06T03:27:34;99210.78;;;21.73;100.00
49342;BME280;35210;41.606;-87.602;2023-08-06T03:30:02;99206.88;;;21.75;100.00
49342;BME280;35210;41.606;-87.602;2023-08-06T03:32:30;99207.31;;;21.79;100.00
49342;BME280;35210;41.606;-87.602;2023-08-06T03:34:59;99216.59;;;21.76;100.00
49342;BME280;35210;41.606;-87.602;2023-08-06T03:37:29;99223.06;;;21.82;100.00
49342;BME280;35210;41.606;-87.602;2023-08-06T03:39:57;99220.75;;;21.79;100.00
49342;BME280;35210;41.606;-87.602;2023-08-06T03:42:25;99213.31;;;21.81;100.00
49342;BME280;35210;41.606;-87.602;2023-08-06T03:44:53;99211.91;;;21.85;100.00
49342;BME280;35210;41.606;-87.602;2023-08-06T03:47:22;99205.94;;;21.89;100.00
49342;BME280;35210;41.606;-87.602;2023-08-06T03:49:51;99208.88;;;21.94;100.00
49342;BME280;35210;41.606;-87.602;2023-08-06T03:52:20;99210.25;;;21.84;100.00
49342;BME280;35210;41.606;-87.602;2023-08-06T03:54:49;99204.38;;;21.74;100.00
49342;BME280;35210;41.606;-87.602;2023-08-06T03:57:17;99210.72;;;21.66;100.00
49342;BME280;35210;41.606;-87.602;2023-08-06T03:59:46;99203.44;;;21.60;100.00
49342;BME280;35210;41.606;-87.602;2023-08-06T04:02:14;99206.31;;;21.58;100.00
49342;BME280;35210;41.606;-87.602;2023-08-06T04:04:43;99201.56;;;21.54;100.00
49342;BME280;35210;41.606;-87.602;2023-08-06T04:07:11;99199.69;;;21.54;100.00
49342;BME280;35210;41.606;-87.602;2023-08-06T04:09:53;99198.56;;;21.42;100.00
49342;BME280;35210;41.606;-87.602;2023-08-06T04:12:21;99193.13;;;21.36;100.00
49342;BME280;35210;41.606;-87.602;2023-08-06T04:14:50;99189.75;;;21.27;100.00
49342;BME280;35210;41.606;-87.602;2023-08-06T04:17:19;99188.09;;;21.26;100.00
49342;BME280;35210;41.606;-87.602;2023-08-06T04:19:48;99184.75;;;21.24;100.00
49342;BME280;35210;41.606;-87.602;2023-08-06T04:22:17;99180.88;;;21.26;100.00
49342;BME280;35210;41.606;-87.602;2023-08-06T04:24:45;99179.94;;;21.19;100.00
49342;BME280;35210;41.606;-87.602;2023-08-06T04:27:17;99186.53;;;21.17;100.00
49342;BME280;35210;41.606;-87.602;2023-08-06T04:29:45;99193.94;;;21.15;100.00
49342;BME280;35210;41.606;-87.602;2023-08-06T04:32:13;99186.38;;;21.04;100.00
49342;BME280;35210;41.606;-87.602;2023-08-06T04:34:41;99178.97;;;21.06;100.00
49342;BME280;35210;41.606;-87.602;2023-08-06T04:37:09;99173.72;;;20.97;100.00
49342;BME280;35210;41.606;-87.602;2023-08-06T04:39:38;99178.06;;;20.98;100.00
49342;BME280;35210;41.606;-87.602;2023-08-06T04:42:06;99177.25;;;20.98;100.00
49342;BME280;35210;41.606;-87.602;2023-08-06T04:44:39;99184.91;;;21.01;100.00
49342;BME280;35210;41.606;-87.602;2023-08-06T04:47:07;99185.56;;;21.03;100.00
49342;BME280;35210;41.606;-87.602;2023-08-06T04:49:35;99177.94;;;21.07;100.00
49342;BME280;35210;41.606;-87.602;2023-08-06T04:52:04;99178.22;;;21.12;100.00
49342;BME280;35210;41.606;-87.602;2023-08-06T04:54:32;99172.47;;;21.15;100.00
49342;BME280;35210;41.606;-87.602;2023-08-06T04:57:00;99166.69;;;21.18;100.00
49342;BME280;35210;41.606;-87.602;2023-08-06T04:59:28;99174.13;;;21.16;100.00
49342;BME280;35210;41.606;-87.602;2023-08-06T05:01:58;99169.19;;;21.19;100.00
49342;BME280;35210;41.606;-87.602;2023-08-06T05:04:26;99161.53;;;21.16;100.00
49342;BME280;35210;41.606;-87.602;2023-08-06T05:06:54;99164.03;;;21.18;100.00
49342;BME280;35210;41.606;-87.602;2023-08-06T05:09:22;99154.69;;;21.14;100.00
49342;BME280;35210;41.606;-87.602;2023-08-06T05:11:50;99141.25;;;21.14;100.00
49342;BME280;35210;41.606;-87.602;2023-08-06T05:14:18;99128.47;;;21.16;100.00
49342;BME280;35210;41.606;-87.602;2023-08-06T05:16:46;99114.41;;;21.14;100.00
49342;BME280;35210;41.606;-87.602;2023-08-06T05:19:16;99110.06;;;21.13;100.00
49342;BME280;35210;41.606;-87.602;2023-08-06T05:21:44;99113.84;;;21.18;100.00
49342;BME280;35210;41.606;-87.602;2023-08-06T05:24:12;99110.94;;;21.20;100.00
49342;BME280;35210;41.606;-87.602;2023-08-06T05:26:40;99116.59;;;21.25;100.00
49342;BME280;35210;41.606;-87.602;2023-08-06T05:29:09;99132.09;;;21.23;100.00
49342;BME280;35210;41.606;-87.602;2023-08-06T05:31:38;99127.34;;;21.25;100.00
49342;BME280;35210;41.606;-87.602;2023-08-06T05:34:06;99132.09;;;21.23;100.00
49342;BME280;35210;41.606;-87.602;2023-08-06T05:36:36;99129.59;;;21.21;100.00
49342;BME280;35210;41.606;-87.602;2023-08-06T05:39:04;99119.19;;;21.18;100.00
49342;BME280;35210;41.606;-87.602;2023-08-06T05:41:32;99122.28;;;21.15;100.00
49342;BME280;35210;41.606;-87.602;2023-08-06T05:44:01;99112.56;;;21.14;100.00
49342;BME280;35210;41.606;-87.602;2023-08-06T05:46:29;99116.34;;;20.98;100.00
49342;BME280;35210;41.606;-87.602;2023-08-06T05:48:57;99130.47;;;21.07;100.00
49342;BME280;35210;41.606;-87.602;2023-08-06T05:51:26;99109.63;;;21.09;100.00
49342;BME280;35210;41.606;-87.602;2023-08-06T05:53:56;99112.94;;;21.11;100.00
49342;BME280;35210;41.606;-87.602;2023-08-06T05:56:24;99113.78;;;21.12;100.00
49342;BME280;35210;41.606;-87.602;2023-08-06T05:58:52;99119.53;;;21.09;100.00
49342;BME280;35210;41.606;-87.602;2023-08-06T06:01:20;99123.63;;;21.05;100.00
49342;BME280;35210;41.606;-87.602;2023-08-06T06:03:48;99128.34;;;21.03;100.00
49342;BME280;35210;41.606;-87.602;2023-08-06T06:06:16;99119.66;;;21.00;100.00
49342;BME280;35210;41.606;-87.602;2023-08-06T06:08:44;99125.22;;;20.99;100.00
49342;BME280;35210;41.606;-87.602;2023-08-06T06:11:14;99124.78;;;20.95;100.00
49342;BME280;35210;41.606;-87.602;2023-08-06T06:13:42;99111.75;;;20.92;100.00
49342;BME280;35210;41.606;-87.602;2023-08-06T06:16:12;99119.41;;;20.95;100.00
49342;BME280;35210;41.606;-87.602;2023-08-06T06:18:40;99117.34;;;20.97;100.00
49342;BME280;35210;41.606;-87.602;2023-08-06T06:21:09;99120.38;;;20.88;100.00
49342;BME280;35210;41.606;-87.602;2023-08-06T06:23:37;99121.25;;;20.95;100.00
49342;BME280;35210;41.606;-87.602;2023-08-06T06:26:06;99104.13;;;20.96;100.00
49342;BME280;35210;41.606;-87.602;2023-08-06T06:28:35;99108.66;;;20.95;100.00
49342;BME280;35210;41.606;-87.602;2023-08-06T06:31:04;99110.53;;;20.95;100.00
49342;BME280;35210;41.606;-87.602;2023-08-06T06:33:32;99099.97;;;20.93;100.00
49342;BME280;35210;41.606;-87.602;2023-08-06T06:36:00;99102.41;;;20.88;100.00
49342;BME280;35210;41.606;-87.602;2023-08-06T06:38:29;99101.13;;;20.84;100.00
49342;BME280;35210;41.606;-87.602;2023-08-06T06:40:57;99099.47;;;20.83;100.00
49342;BME280;35210;41.606;-87.602;2023-08-06T06:43:26;99088.72;;;20.83;100.00
49342;BME280;35210;41.606;-87.602;2023-08-06T06:45:58;99082.72;;;20.81;100.00
49342;BME280;35210;41.606;-87.602;2023-08-06T06:48:26;99081.28;;;20.79;100.00
49342;BME280;35210;41.606;-87.602;2023-08-06T06:50:54;99078.84;;;20.84;100.00
49342;BME280;35210;41.606;-87.602;2023-08-06T06:53:23;99082.34;;;20.84;100.00
49342;BME280;35210;41.606;-87.602;2023-08-06T06:55:53;99084.16;;;20.77;100.00
49342;BME280;35210;41.606;-87.602;2023-08-06T06:58:21;99091.19;;;20.78;100.00
49342;BME280;35210;41.606;-87.602;2023-08-06T07:00:51;99093.69;;;20.80;100.00
49342;BME280;35210;41.606;-87.602;2023-08-06T07:03:21;99090.41;;;20.84;100.00
49342;BME280;35210;41.606;-87.602;2023-08-06T07:05:50;99086.88;;;20.84;100.00
49342;BME280;35210;41.606;-87.602;2023-08-06T07:08:18;99073.47;;;20.84;100.00
49342;BME280;35210;41.606;-87.602;2023-08-06T07:10:46;99074.50;;;20.83;100.00
49342;BME280;35210;41.606;-87.602;2023-08-06T07:13:14;99070.59;;;20.85;100.00
49342;BME280;35210;41.606;-87.602;2023-08-06T07:15:42;99068.34;;;20.89;100.00
49342;BME280;35210;41.606;-87.602;2023-08-06T07:18:10;99069.38;;;20.88;100.00
49342;BME280;35210;41.606;-87.602;2023-08-06T07:20:48;99067.53;;;20.88;100.00
49342;BME280;35210;41.606;-87.602;2023-08-06T07:23:16;99080.38;;;20.93;100.00
49342;BME280;35210;41.606;-87.602;2023-08-06T07:25:46;99073.97;;;20.94;100.00
49342;BME280;35210;41.606;-87.602;2023-08-06T07:28:16;99076.06;;;20.98;100.00
49342;BME280;35210;41.606;-87.602;2023-08-06T07:30:45;99068.22;;;20.97;100.00
49342;BME280;35210;41.606;-87.602;2023-08-06T07:33:15;99071.34;;;21.00;100.00
49342;BME280;35210;41.606;-87.602;2023-08-06T07:35:45;99065.34;;;20.98;100.00
49342;BME280;35210;41.606;-87.602;2023-08-06T07:38:18;99070.72;;;20.98;100.00
49342;BME280;35210;41.606;-87.602;2023-08-06T07:41:12;99072.75;;;20.96;100.00
49342;BME280;35210;41.606;-87.602;2023-08-06T07:43:45;99061.78;;;20.91;100.00
49342;BME280;35210;41.606;-87.602;2023-08-06T07:46:26;99048.34;;;20.91;100.00
49342;BME280;35210;41.606;-87.602;2023-08-06T07:48:58;99052.69;;;20.92;100.00
49342;BME280;35210;41.606;-87.602;2023-08-06T07:51:34;99052.13;;;20.97;100.00
49342;BME280;35210;41.606;-87.602;2023-08-06T07:54:06;99052.94;;;20.97;100.00
49342;BME280;35210;41.606;-87.602;2023-08-06T07:56:44;99040.94;;;20.93;100.00
49342;BME280;35210;41.606;-87.602;2023-08-06T07:59:13;99033.72;;;20.94;100.00
49342;BME280;35210;41.606;-87.602;2023-08-06T08:01:41;99029.81;;;20.96;100.00
49342;BME280;35210;41.606;-87.602;2023-08-06T08:04:09;99016.38;;;20.96;100.00
49342;BME280;35210;41.606;-87.602;2023-08-06T08:06:39;99020.34;;;21.00;100.00
49342;BME280;35210;41.606;-87.602;2023-08-06T08:09:07;99015.63;;;21.03;100.00
49342;BME280;35210;41.606;-87.602;2023-08-06T08:11:35;99026.16;;;21.04;100.00
49342;BME280;35210;41.606;-87.602;2023-08-06T08:14:04;99018.09;;;21.04;100.00
49342;BME280;35210;41.606;-87.602;2023-08-06T08:16:32;99015.84;;;21.08;100.00
49342;BME280;35210;41.606;-87.602;2023-08-06T08:19:01;99010.88;;;21.05;100.00
49342;BME280;35210;41.606;-87.602;2023-08-06T08:21:30;99009.22;;;21.04;100.00
49342;BME280;35210;41.606;-87.602;2023-08-06T08:24:01;99003.22;;;21.02;100.00
49342;BME280;35210;41.606;-87.602;2023-08-06T08:26:29;98999.50;;;21.03;100.00
49342;BME280;35210;41.606;-87.602;2023-08-06T08:28:57;99004.47;;;21.06;100.00
49342;BME280;35210;41.606;-87.602;2023-08-06T08:31:25;98996.44;;;21.06;100.00
49342;BME280;35210;41.606;-87.602;2023-08-06T08:33:54;99012.78;;;21.11;100.00
49342;BME280;35210;41.606;-87.602;2023-08-06T08:36:22;99010.72;;;21.13;100.00
49342;BME280;35210;41.606;-87.602;2023-08-06T08:38:51;99010.34;;;21.16;100.00
49342;BME280;35210;41.606;-87.602;2023-08-06T08:41:22;99002.47;;;21.14;100.00
49342;BME280;35210;41.606;-87.602;2023-08-06T08:43:50;99000.22;;;21.18;100.00
49342;BME280;35210;41.606;-87.602;2023-08-06T08:46:19;98996.09;;;21.15;100.00
49342;BME280;35210;41.606;-87.602;2023-08-06T08:48:47;98987.00;;;21.16;100.00
49342;BME280;35210;41.606;-87.602;2023-08-06T08:51:17;98987.00;;;21.16;100.00
49342;BME280;35210;41.606;-87.602;2023-08-06T08:53:47;98987.84;;;21.17;100.00
49342;BME280;35210;41.606;-87.602;2023-08-06T08:56:18;98979.78;;;21.17;100.00
49342;BME280;35210;41.606;-87.602;2023-08-06T08:58:48;98983.94;;;21.19;100.00
49342;BME280;35210;41.606;-87.602;2023-08-06T09:01:16;98976.03;;;21.11;100.00
49342;BME280;35210;41.606;-87.602;2023-08-06T09:03:46;98975.38;;;21.09;100.00
49342;BME280;35210;41.606;-87.602;2023-08-06T09:06:15;98971.25;;;21.07;100.00
49342;BME280;35210;41.606;-87.602;2023-08-06T09:08:51;98962.38;;;21.06;100.00
49342;BME280;35210;41.606;-87.602;2023-08-06T09:11:23;98972.06;;;21.07;100.00
49342;BME280;35210;41.606;-87.602;2023-08-06T09:13:54;98973.72;;;21.08;100.00
49342;BME280;35210;41.606;-87.602;2023-08-06T09:16:24;98961.56;;;21.12;100.00
49342;BME280;35210;41.606;-87.602;2023-08-06T09:18:52;98961.78;;;21.11;100.00
49342;BME280;35210;41.606;-87.602;2023-08-06T09:21:20;98946.94;;;21.15;100.00
49342;BME280;35210;41.606;-87.602;2023-08-06T09:23:48;98947.56;;;21.17;100.00
49342;BME280;35210;41.606;-87.602;2023-08-06T09:26:16;98937.44;;;21.19;100.00
49342;BME280;35210;41.606;-87.602;2023-08-06T09:28:44;98937.44;;;21.19;100.00
49342;BME280;35210;41.606;-87.602;2023-08-06T09:31:14;98938.47;;;21.18;100.00
49342;BME280;35210;41.606;-87.602;2023-08-06T09:33:42;98934.53;;;21.14;100.00
49342;BME280;35210;41.606;-87.602;2023-08-06T09:36:11;98941.31;;;21.10;100.00
49342;BME280;35210;41.606;-87.602;2023-08-06T09:38:40;98938.00;;;21.08;100.00
49342;BME280;35210;41.606;-87.602;2023-08-06T09:41:09;98936.75;;;21.04;100.00
49342;BME280;35210;41.606;-87.602;2023-08-06T09:43:41;98927.84;;;21.03;100.00
49342;BME280;35210;41.606;-87.602;2023-08-06T09:46:14;98918.59;;;21.06;100.00
49342;BME280;35210;41.606;-87.602;2023-08-06T09:48:45;98922.09;;;21.06;100.00
49342;BME280;35210;41.606;-87.602;2023-08-06T09:51:14;98927.28;;;21.08;100.00
49342;BME280;35210;41.606;-87.602;2023-08-06T09:53:42;98938.63;;;21.10;100.00
49342;BME280;35210;41.606;-87.602;2023-08-06T09:56:13;98939.88;;;21.07;100.00
49342;BME280;35210;41.606;-87.602;2023-08-06T09:58:42;98946.06;;;21.08;100.00
49342;BME280;35210;41.606;-87.602;2023-08-06T10:01:13;98930.97;;;21.07;100.00
49342;BME280;35210;41.606;-87.602;2023-08-06T10:03:42;98942.16;;;21.10;100.00
49342;BME280;35210;41.606;-87.602;2023-08-06T10:06:11;98937.81;;;21.09;100.00
49342;BME280;35210;41.606;-87.602;2023-08-06T10:08:39;98939.47;;;21.10;100.00
49342;BME280;35210;41.606;-87.602;2023-08-06T10:11:09;98948.53;;;21.09;100.00
49342;BME280;35210;41.606;-87.602;2023-08-06T10:13:39;98947.09;;;21.07;100.00
49342;BME280;35210;41.606;-87.602;2023-08-06T10:16:07;98955.56;;;21.10;100.00
49342;BME280;35210;41.606;-87.602;2023-08-06T10:18:38;98957.28;;;21.18;100.00
49342;BME280;35210;41.606;-87.602;2023-08-06T10:21:08;98952.19;;;21.23;100.00
49342;BME280;35210;41.606;-87.602;2023-08-06T10:23:39;98945.78;;;21.24;100.00
49342;BME280;35210;41.606;-87.602;2023-08-06T10:26:08;98946.22;;;21.27;100.00
49342;BME280;35210;41.606;-87.602;2023-08-06T10:28:37;98948.69;;;21.29;100.00
49342;BME280;35210;41.606;-87.602;2023-08-06T10:31:08;98955.34;;;21.33;100.00
49342;BME280;35210;41.606;-87.602;2023-08-06T10:33:45;98958.84;;;21.34;100.00
49342;BME280;35210;41.606;-87.602;2023-08-06T10:36:14;98961.53;;;21.34;100.00
49342;BME280;35210;41.606;-87.602;2023-08-06T10:38:47;98940.66;;;21.29;100.00
49342;BME280;35210;41.606;-87.602;2023-08-06T10:41:18;98936.69;;;21.25;100.00
49342;BME280;35210;41.606;-87.602;2023-08-06T10:43:47;98925.69;;;21.20;100.00
49342;BME280;35210;41.606;-87.602;2023-08-06T10:46:23;98931.72;;;21.22;100.00
49342;BME280;35210;41.606;-87.602;2023-08-06T10:48:56;98923.47;;;21.23;100.00
49342;BME280;35210;41.606;-87.602;2023-08-06T10:51:25;98917.28;;;21.23;100.00
49342;BME280;35210;41.606;-87.602;2023-08-06T10:53:53;98914.19;;;21.26;100.00
49342;BME280;35210;41.606;-87.602;2023-08-06T10:56:23;98912.13;;;21.28;100.00
49342;BME280;35210;41.606;-87.602;2023-08-06T10:58:55;98908.03;;;21.32;100.00
49342;BME280;35210;41.606;-87.602;2023-08-06T11:01:24;98904.94;;;21.35;100.00
49342;BME280;35210;41.606;-87.602;2023-08-06T11:03:52;98900.00;;;21.39;100.00
49342;BME280;35210;41.606;-87.602;2023-08-06T11:06:23;98900.41;;;21.42;100.00
49342;BME280;35210;41.606;-87.602;2023-08-06T11:08:53;98892.75;;;21.39;100.00
49342;BME280;35210;41.606;-87.602;2023-08-06T11:11:22;98901.69;;;21.46;100.00
49342;BME280;35210;41.606;-87.602;2023-08-06T11:13:51;98904.16;;;21.48;100.00
49342;BME280;35210;41.606;-87.602;2023-08-06T11:16:21;98911.00;;;21.50;100.00
49342;BME280;35210;41.606;-87.602;2023-08-06T11:18:51;98918.22;;;21.50;100.00
49342;BME280;35210;41.606;-87.602;2023-08-06T11:21:22;98922.38;;;21.52;100.00
49342;BME280;35210;41.606;-87.602;2023-08-06T11:23:51;98936.00;;;21.51;100.00
49342;BME280;35210;41.606;-87.602;2023-08-06T11:26:19;98944.88;;;21.51;100.00
49342;BME280;35210;41.606;-87.602;2023-08-06T11:28:47;98936.81;;;21.51;100.00
49342;BME280;35210;41.606;-87.602;2023-08-06T11:31:19;98936.81;;;21.51;100.00
49342;BME280;35210;41.606;-87.602;2023-08-06T11:33:48;98943.22;;;21.50;100.00
49342;BME280;35210;41.606;-87.602;2023-08-06T11:36:30;98939.72;;;21.56;100.00
49342;BME280;35210;41.606;-87.602;2023-08-06T11:38:59;98944.06;;;21.57;100.00
49342;BME280;35210;41.606;-87.602;2023-08-06T11:41:28;98952.13;;;21.57;100.00
49342;BME280;35210;41.606;-87.602;2023-08-06T11:43:56;98950.25;;;21.58;100.00
49342;BME280;35210;41.606;-87.602;2023-08-06T11:46:24;98947.38;;;21.59;100.00
49342;BME280;35210;41.606;-87.602;2023-08-06T11:48:53;98936.84;;;21.64;100.00
49342;BME280;35210;41.606;-87.602;2023-08-06T11:51:23;98937.66;;;21.58;100.00
49342;BME280;35210;41.606;-87.602;2023-08-06T11:53:55;98924.41;;;21.57;100.00
49342;BME280;35210;41.606;-87.602;2023-08-06T11:56:23;98924.03;;;21.60;100.00
49342;BME280;35210;41.606;-87.602;2023-08-06T11:58:51;98914.50;;;21.57;100.00
49342;BME280;35210;41.606;-87.602;2023-08-06T12:01:19;98907.06;;;21.46;100.00
49342;BME280;35210;41.606;-87.602;2023-08-06T12:03:48;98902.72;;;21.45;100.00
49342;BME280;35210;41.606;-87.602;2023-08-06T12:06:16;98908.31;;;21.50;100.00
49342;BME280;35210;41.606;-87.602;2023-08-06T12:08:44;98911.00;;;21.50;100.00
49342;BME280;35210;41.606;-87.602;2023-08-06T12:11:13;98906.25;;;21.52;100.00
49342;BME280;35210;41.606;-87.602;2023-08-06T12:13:41;98905.63;;;21.57;100.00
49342;BME280;35210;41.606;-87.602;2023-08-06T12:16:10;98910.78;;;21.58;100.00
49342;BME280;35210;41.606;-87.602;2023-08-06T12:18:39;98911.00;;;21.50;100.00
49342;BME280;35210;41.606;-87.602;2023-08-06T12:21:07;98913.25;;;21.47;100.00
49342;BME280;35210;41.606;-87.602;2023-08-06T12:23:36;98909.13;;;21.51;100.00
49342;BME280;35210;41.606;-87.602;2023-08-06T12:26:04;98904.59;;;21.51;100.00
49342;BME280;35210;41.606;-87.602;2023-08-06T12:28:34;98899.41;;;21.50;100.00
49342;BME280;35210;41.606;-87.602;2023-08-06T12:31:02;98897.34;;;21.45;100.00
49342;BME280;35210;41.606;-87.602;2023-08-06T12:33:30;98896.72;;;21.43;100.00
49342;BME280;35210;41.606;-87.602;2023-08-06T12:35:59;98892.75;;;21.39;100.00
49342;BME280;35210;41.606;-87.602;2023-08-06T12:38:27;98905.16;;;21.40;100.00
49342;BME280;35210;41.606;-87.602;2023-08-06T12:40:59;98915.50;;;21.43;100.00